sensor_id;sensor_type;location;lat;lon;timestamp;temperature;humidity
52725;DHT22;38621;52.830;6.914;2023-04-24T00:01:43;9.90;99.90
52725;DHT22;38621;52.830;6.914;2023-04-24T00:04:09;9.90;99.90
52725;DHT22;38621;52.830;6.914;2023-04-24T00:06:37;9.90;99.90
52725;DHT22;38621;52.830;6.914;2023-04-24T00:09:04;9.90;99.90
52725;DHT22;38621;52.830;6.914;2023-04-24T00:11:30;9.90;99.90
52725;DHT22;38621;52.830;6.914;2023-04-24T00:13:56;9.90;99.90
52725;DHT22;38621;52.830;6.914;2023-04-24T00:16:23;9.90;99.90
52725;DHT22;38621;52.830;6.914;2023-04-24T00:18:48;9.80;99.90
52725;DHT22;38621;52.830;6.914;2023-04-24T00:21:15;9.80;99.90
52725;DHT22;38621;52.830;6.914;2023-04-24T00:23:43;9.80;99.90
52725;DHT22;38621;52.830;6.914;2023-04-24T00:26:09;9.70;99.90
52725;DHT22;38621;52.830;6.914;2023-04-24T00:28:35;9.70;99.90
52725;DHT22;38621;52.830;6.914;2023-04-24T00:31:01;9.70;99.90
52725;DHT22;38621;52.830;6.914;2023-04-24T00:33:27;9.70;99.90
52725;DHT22;38621;52.830;6.914;2023-04-24T00:35:52;9.70;99.90
52725;DHT22;38621;52.830;6.914;2023-04-24T00:38:18;9.60;99.90
52725;DHT22;38621;52.830;6.914;2023-04-24T00:40:44;9.60;99.90
52725;DHT22;38621;52.830;6.914;2023-04-24T00:43:10;9.60;99.90
52725;DHT22;38621;52.830;6.914;2023-04-24T00:45:36;9.60;99.90
52725;DHT22;38621;52.830;6.914;2023-04-24T00:48:02;9.60;99.90
52725;DHT22;38621;52.830;6.914;2023-04-24T00:50:28;9.60;99.90
52725;DHT22;38621;52.830;6.914;2023-04-24T00:52:54;9.60;99.90
52725;DHT22;38621;52.830;6.914;2023-04-24T00:55:20;9.50;99.90
52725;DHT22;38621;52.830;6.914;2023-04-24T00:57:46;9.50;99.90
52725;DHT22;38621;52.830;6.914;2023-04-24T01:00:14;9.40;99.90
52725;DHT22;38621;52.830;6.914;2023-04-24T01:02:41;9.30;99.90
52725;DHT22;38621;52.830;6.914;2023-04-24T01:05:12;9.30;99.90
52725;DHT22;38621;52.830;6.914;2023-04-24T01:07:39;9.20;99.90
52725;DHT22;38621;52.830;6.914;2023-04-24T01:10:07;9.20;99.90
52725;DHT22;38621;52.830;6.914;2023-04-24T01:12:34;9.20;99.90
52725;DHT22;38621;52.830;6.914;2023-04-24T01:14:59;9.20;99.90
52725;DHT22;38621;52.830;6.914;2023-04-24T01:17:26;9.20;99.90
52725;DHT22;38621;52.830;6.914;2023-04-24T01:19:52;9.20;99.90
52725;DHT22;38621;52.830;6.914;2023-04-24T01:22:22;9.20;99.90
52725;DHT22;38621;52.830;6.914;2023-04-24T01:24:48;9.20;99.90
52725;DHT22;38621;52.830;6.914;2023-04-24T01:27:14;9.20;99.90
52725;DHT22;38621;52.830;6.914;2023-04-24T01:29:41;9.20;99.90
52725;DHT22;38621;52.830;6.914;2023-04-24T01:32:07;9.20;99.90
52725;DHT22;38621;52.830;6.914;2023-04-24T01:34:33;9.20;99.90
52725;DHT22;38621;52.830;6.914;2023-04-24T01:36:59;9.20;99.90
52725;DHT22;38621;52.830;6.914;2023-04-24T01:39:25;9.20;99.90
52725;DHT22;38621;52.830;6.914;2023-04-24T01:41:54;9.20;99.90
52725;DHT22;38621;52.830;6.914;2023-04-24T01:44:20;9.20;99.90
52725;DHT22;38621;52.830;6.914;2023-04-24T01:46:46;9.20;99.90
52725;DHT22;38621;52.830;6.914;2023-04-24T01:49:12;9.10;99.90
52725;DHT22;38621;52.830;6.914;2023-04-24T01:51:37;9.20;99.90
52725;DHT22;38621;52.830;6.914;2023-04-24T01:54:03;9.10;99.90
52725;DHT22;38621;52.830;6.914;2023-04-24T01:56:29;9.10;99.90
52725;DHT22;38621;52.830;6.914;2023-04-24T01:58:56;9.10;99.90
52725;DHT22;38621;52.830;6.914;2023-04-24T02:01:23;9.10;99.90
52725;DHT22;38621;52.830;6.914;2023-04-24T02:03:49;9.10;99.90
52725;DHT22;38621;52.830;6.914;2023-04-24T02:06:15;9.10;99.90
52725;DHT22;38621;52.830;6.914;2023-04-24T02:08:41;9.00;99.90
52725;DHT22;38621;52.830;6.914;2023-04-24T02:11:08;9.00;99.90
52725;DHT22;38621;52.830;6.914;2023-04-24T02:13:34;9.00;99.90
52725;DHT22;38621;52.830;6.914;2023-04-24T02:16:00;9.10;99.90
52725;DHT22;38621;52.830;6.914;2023-04-24T02:18:26;9.10;99.90
52725;DHT22;38621;52.830;6.914;2023-04-24T02:20:52;9.10;99.90
52725;DHT22;38621;52.830;6.914;2023-04-24T02:23:18;9.10;99.90
52725;DHT22;38621;52.830;6.914;2023-04-24T02:25:44;9.00;99.90
52725;DHT22;38621;52.830;6.914;2023-04-24T02:28:09;9.00;99.90
52725;DHT22;38621;52.830;6.914;2023-04-24T02:30:35;9.00;99.90
52725;DHT22;38621;52.830;6.914;2023-04-24T02:33:01;9.00;99.90
52725;DHT22;38621;52.830;6.914;2023-04-24T02:35:26;9.00;99.90
52725;DHT22;38621;52.830;6.914;2023-04-24T02:37:52;9.00;99.90
52725;DHT22;38621;52.830;6.914;2023-04-24T02:40:18;9.10;99.90
52725;DHT22;38621;52.830;6.914;2023-04-24T02:42:43;9.00;99.90
52725;DHT22;38621;52.830;6.914;2023-04-24T02:45:09;9.10;99.90
52725;DHT22;38621;52.830;6.914;2023-04-24T02:47:35;9.00;99.90
52725;DHT22;38621;52.830;6.914;2023-04-24T02:50:02;9.00;99.90
52725;DHT22;38621;52.830;6.914;2023-04-24T02:52:28;9.00;99.90
52725;DHT22;38621;52.830;6.914;2023-04-24T02:54:54;9.00;99.90
52725;DHT22;38621;52.830;6.914;2023-04-24T02:57:19;9.00;99.90
52725;DHT22;38621;52.830;6.914;2023-04-24T02:59:45;9.00;99.90
52725;DHT22;38621;52.830;6.914;2023-04-24T03:02:11;9.00;99.90
52725;DHT22;38621;52.830;6.914;2023-04-24T03:04:36;9.00;99.90
52725;DHT22;38621;52.830;6.914;2023-04-24T03:07:02;9.00;99.90
52725;DHT22;38621;52.830;6.914;2023-04-24T03:09:28;9.00;99.90
52725;DHT22;38621;52.830;6.914;2023-04-24T03:11:53;8.90;99.90
52725;DHT22;38621;52.830;6.914;2023-04-24T03:14:19;8.90;99.90
52725;DHT22;38621;52.830;6.914;2023-04-24T03:16:45;8.90;99.90
52725;DHT22;38621;52.830;6.914;2023-04-24T03:19:10;8.90;99.90
52725;DHT22;38621;52.830;6.914;2023-04-24T03:21:36;8.90;99.90
52725;DHT22;38621;52.830;6.914;2023-04-24T03:24:08;8.80;99.90
52725;DHT22;38621;52.830;6.914;2023-04-24T03:26:35;8.80;99.90
52725;DHT22;38621;52.830;6.914;2023-04-24T03:29:01;8.80;99.90
52725;DHT22;38621;52.830;6.914;2023-04-24T03:31:26;8.80;99.90
52725;DHT22;38621;52.830;6.914;2023-04-24T03:33:52;8.80;99.90
52725;DHT22;38621;52.830;6.914;2023-04-24T03:36:18;8.80;99.90
52725;DHT22;38621;52.830;6.914;2023-04-24T03:38:44;8.80;99.90
52725;DHT22;38621;52.830;6.914;2023-04-24T03:41:11;8.80;99.90
52725;DHT22;38621;52.830;6.914;2023-04-24T03:43:37;8.80;99.90
52725;DHT22;38621;52.830;6.914;2023-04-24T03:46:03;8.80;99.90
52725;DHT22;38621;52.830;6.914;2023-04-24T03:48:29;8.80;99.90
52725;DHT22;38621;52.830;6.914;2023-04-24T03:50:55;8.80;99.90
52725;DHT22;38621;52.830;6.914;2023-04-24T03:53:21;8.80;99.90
52725;DHT22;38621;52.830;6.914;2023-04-24T03:55:47;8.80;99.90
52725;DHT22;38621;52.830;6.914;2023-04-24T03:58:13;8.80;99.90
52725;DHT22;38621;52.830;6.914;2023-04-24T04:00:41;8.70;99.90
52725;DHT22;38621;52.830;6.914;2023-04-24T04:03:07;8.70;99.90
52725;DHT22;38621;52.830;6.914;2023-04-24T04:05:32;8.70;99.90
52725;DHT22;38621;52.830;6.914;2023-04-24T04:07:58;8.70;99.90
52725;DHT22;38621;52.830;6.914;2023-04-24T04:10:24;8.80;99.90
52725;DHT22;38621;52.830;6.914;2023-04-24T04:12:49;8.80;99.90
52725;DHT22;38621;52.830;6.914;2023-04-24T04:15:15;8.80;99.90
52725;DHT22;38621;52.830;6.914;2023-04-24T04:17:41;8.80;99.90
52725;DHT22;38621;52.830;6.914;2023-04-24T04:20:07;8.90;99.90
52725;DHT22;38621;52.830;6.914;2023-04-24T04:22:35;8.90;99.90
52725;DHT22;38621;52.830;6.914;2023-04-24T04:25:02;8.90;99.90
52725;DHT22;38621;52.830;6.914;2023-04-24T04:27:27;8.90;99.90
52725;DHT22;38621;52.830;6.914;2023-04-24T04:29:54;8.90;99.90
52725;DHT22;38621;52.830;6.914;2023-04-24T04:32:22;8.90;99.90
52725;DHT22;38621;52.830;6.914;2023-04-24T04:34:47;8.90;99.90
52725;DHT22;38621;52.830;6.914;2023-04-24T04:37:15;8.80;99.90
52725;DHT22;38621;52.830;6.914;2023-04-24T04:39:40;8.80;99.90
52725;DHT22;38621;52.830;6.914;2023-04-24T04:42:06;8.80;99.90
52725;DHT22;38621;52.830;6.914;2023-04-24T04:44:32;8.80;99.90
52725;DHT22;38621;52.830;6.914;2023-04-24T04:46:58;8.80;99.90
52725;DHT22;38621;52.830;6.914;2023-04-24T04:49:25;8.80;99.90
52725;DHT22;38621;52.830;6.914;2023-04-24T04:51:54;8.80;99.90
52725;DHT22;38621;52.830;6.914;2023-04-24T04:54:19;8.70;99.90
52725;DHT22;38621;52.830;6.914;2023-04-24T04:56:45;8.70;99.90
52725;DHT22;38621;52.830;6.914;2023-04-24T04:59:11;8.70;99.90
52725;DHT22;38621;52.830;6.914;2023-04-24T05:01:37;8.70;99.90
52725;DHT22;38621;52.830;6.914;2023-04-24T05:04:03;8.70;99.90
52725;DHT22;38621;52.830;6.914;2023-04-24T05:06:29;8.70;99.90
52725;DHT22;38621;52.830;6.914;2023-04-24T05:08:56;8.70;99.90
52725;DHT22;38621;52.830;6.914;2023-04-24T05:11:23;8.70;99.90
52725;DHT22;38621;52.830;6.914;2023-04-24T05:13:48;8.70;99.90
52725;DHT22;38621;52.830;6.914;2023-04-24T05:16:14;8.80;99.90
52725;DHT22;38621;52.830;6.914;2023-04-24T05:18:40;8.80;99.90
52725;DHT22;38621;52.830;6.914;2023-04-24T05:21:06;8.80;99.90
52725;DHT22;38621;52.830;6.914;2023-04-24T05:23:31;8.90;99.90
52725;DHT22;38621;52.830;6.914;2023-04-24T05:25:57;8.90;99.90
52725;DHT22;38621;52.830;6.914;2023-04-24T05:28:23;8.90;99.90
52725;DHT22;38621;52.830;6.914;2023-04-24T05:30:49;8.90;99.90
52725;DHT22;38621;52.830;6.914;2023-04-24T05:33:15;9.00;99.90
52725;DHT22;38621;52.830;6.914;2023-04-24T05:35:41;9.00;99.90
52725;DHT22;38621;52.830;6.914;2023-04-24T05:38:12;9.00;99.90
52725;DHT22;38621;52.830;6.914;2023-04-24T05:40:38;9.00;99.90
52725;DHT22;38621;52.830;6.914;2023-04-24T05:43:04;9.00;99.90
52725;DHT22;38621;52.830;6.914;2023-04-24T05:45:30;9.00;99.90
52725;DHT22;38621;52.830;6.914;2023-04-24T05:47:56;9.00;99.90
52725;DHT22;38621;52.830;6.914;2023-04-24T05:50:21;9.10;99.90
52725;DHT22;38621;52.830;6.914;2023-04-24T05:52:47;9.10;99.90
52725;DHT22;38621;52.830;6.914;2023-04-24T05:55:13;9.10;99.90
52725;DHT22;38621;52.830;6.914;2023-04-24T05:57:38;9.10;99.90
52725;DHT22;38621;52.830;6.914;2023-04-24T06:00:05;9.10;99.90
52725;DHT22;38621;52.830;6.914;2023-04-24T06:02:31;9.00;99.90
52725;DHT22;38621;52.830;6.914;2023-04-24T06:04:58;9.00;99.90
52725;DHT22;38621;52.830;6.914;2023-04-24T06:07:25;9.10;99.90
52725;DHT22;38621;52.830;6.914;2023-04-24T06:09:52;9.00;99.90
52725;DHT22;38621;52.830;6.914;2023-04-24T06:12:17;8.90;99.90
52725;DHT22;38621;52.830;6.914;2023-04-24T06:14:43;8.90;99.90
52725;DHT22;38621;52.830;6.914;2023-04-24T06:17:09;8.90;99.90
52725;DHT22;38621;52.830;6.914;2023-04-24T06:19:35;8.90;99.90
52725;DHT22;38621;52.830;6.914;2023-04-24T06:22:00;8.90;99.90
52725;DHT22;38621;52.830;6.914;2023-04-24T06:24:29;8.90;99.90
52725;DHT22;38621;52.830;6.914;2023-04-24T06:26:55;8.90;99.90
52725;DHT22;38621;52.830;6.914;2023-04-24T06:29:22;8.90;99.90
52725;DHT22;38621;52.830;6.914;2023-04-24T06:31:47;8.90;99.90
52725;DHT22;38621;52.830;6.914;2023-04-24T06:34:13;8.90;99.90
52725;DHT22;38621;52.830;6.914;2023-04-24T06:36:39;8.90;99.90
52725;DHT22;38621;52.830;6.914;2023-04-24T06:39:05;8.90;99.90
52725;DHT22;38621;52.830;6.914;2023-04-24T06:41:30;8.90;99.90
52725;DHT22;38621;52.830;6.914;2023-04-24T06:43:56;9.00;99.90
52725;DHT22;38621;52.830;6.914;2023-04-24T06:46:22;8.90;99.90
52725;DHT22;38621;52.830;6.914;2023-04-24T06:48:49;8.90;99.90
52725;DHT22;38621;52.830;6.914;2023-04-24T06:51:16;8.90;99.90
52725;DHT22;38621;52.830;6.914;2023-04-24T06:53:43;8.90;99.90
52725;DHT22;38621;52.830;6.914;2023-04-24T06:56:09;8.90;99.90
52725;DHT22;38621;52.830;6.914;2023-04-24T06:58:35;8.90;99.90
52725;DHT22;38621;52.830;6.914;2023-04-24T07:01:00;8.90;99.90
52725;DHT22;38621;52.830;6.914;2023-04-24T07:03:26;8.90;99.90
52725;DHT22;38621;52.830;6.914;2023-04-24T07:05:52;8.90;99.90
52725;DHT22;38621;52.830;6.914;2023-04-24T07:08:18;8.80;99.90
52725;DHT22;38621;52.830;6.914;2023-04-24T07:10:45;8.90;99.90
52725;DHT22;38621;52.830;6.914;2023-04-24T07:13:11;8.90;99.90
52725;DHT22;38621;52.830;6.914;2023-04-24T07:15:37;8.80;99.90
52725;DHT22;38621;52.830;6.914;2023-04-24T07:18:03;8.80;99.90
52725;DHT22;38621;52.830;6.914;2023-04-24T07:20:28;8.80;99.90
52725;DHT22;38621;52.830;6.914;2023-04-24T07:22:54;8.80;99.90
52725;DHT22;38621;52.830;6.914;2023-04-24T07:25:20;8.80;99.90
52725;DHT22;38621;52.830;6.914;2023-04-24T07:27:46;8.80;99.90
52725;DHT22;38621;52.830;6.914;2023-04-24T07:30:11;8.90;99.90
52725;DHT22;38621;52.830;6.914;2023-04-24T07:32:37;8.90;99.90
52725;DHT22;38621;52.830;6.914;2023-04-24T07:35:03;8.90;99.90
52725;DHT22;38621;52.830;6.914;2023-04-24T07:37:29;8.90;99.90
52725;DHT22;38621;52.830;6.914;2023-04-24T07:39:55;8.90;99.90
52725;DHT22;38621;52.830;6.914;2023-04-24T07:42:20;9.00;99.90
52725;DHT22;38621;52.830;6.914;2023-04-24T07:44:46;9.20;99.90
52725;DHT22;38621;52.830;6.914;2023-04-24T07:47:13;9.20;99.90
52725;DHT22;38621;52.830;6.914;2023-04-24T07:49:44;9.30;99.90
52725;DHT22;38621;52.830;6.914;2023-04-24T07:52:10;9.30;99.90
52725;DHT22;38621;52.830;6.914;2023-04-24T07:54:35;9.30;99.90
52725;DHT22;38621;52.830;6.914;2023-04-24T07:57:03;9.40;99.90
52725;DHT22;38621;52.830;6.914;2023-04-24T07:59:28;9.40;99.90
52725;DHT22;38621;52.830;6.914;2023-04-24T08:01:54;9.50;99.90
52725;DHT22;38621;52.830;6.914;2023-04-24T08:04:20;9.50;99.90
52725;DHT22;38621;52.830;6.914;2023-04-24T08:06:47;9.50;99.90
52725;DHT22;38621;52.830;6.914;2023-04-24T08:09:13;9.50;99.90
52725;DHT22;38621;52.830;6.914;2023-04-24T08:11:39;9.50;99.90
52725;DHT22;38621;52.830;6.914;2023-04-24T08:14:04;9.60;99.90
52725;DHT22;38621;52.830;6.914;2023-04-24T08:16:32;9.50;99.90
52725;DHT22;38621;52.830;6.914;2023-04-24T08:18:58;9.50;99.90
52725;DHT22;38621;52.830;6.914;2023-04-24T08:21:25;9.40;99.90
52725;DHT22;38621;52.830;6.914;2023-04-24T08:23:52;9.40;99.90
52725;DHT22;38621;52.830;6.914;2023-04-24T08:26:18;9.50;99.90
52725;DHT22;38621;52.830;6.914;2023-04-24T08:28:44;9.50;99.90
52725;DHT22;38621;52.830;6.914;2023-04-24T08:31:09;9.50;99.90
52725;DHT22;38621;52.830;6.914;2023-04-24T08:33:35;9.50;99.90
52725;DHT22;38621;52.830;6.914;2023-04-24T08:36:05;9.60;99.90
52725;DHT22;38621;52.830;6.914;2023-04-24T08:38:31;9.60;99.90
52725;DHT22;38621;52.830;6.914;2023-04-24T08:40:58;9.60;99.90
52725;DHT22;38621;52.830;6.914;2023-04-24T08:43:25;9.50;99.90
52725;DHT22;38621;52.830;6.914;2023-04-24T08:45:52;9.40;99.90
52725;DHT22;38621;52.830;6.914;2023-04-24T08:48:18;9.40;99.90
52725;DHT22;38621;52.830;6.914;2023-04-24T08:50:44;9.40;99.90
52725;DHT22;38621;52.830;6.914;2023-04-24T08:53:10;9.40;99.90
52725;DHT22;38621;52.830;6.914;2023-04-24T08:55:37;9.40;99.90
52725;DHT22;38621;52.830;6.914;2023-04-24T08:58:03;9.40;99.90
52725;DHT22;38621;52.830;6.914;2023-04-24T09:00:30;9.30;99.90
52725;DHT22;38621;52.830;6.914;2023-04-24T09:02:56;9.30;99.90
52725;DHT22;38621;52.830;6.914;2023-04-24T09:05:22;9.30;99.90
52725;DHT22;38621;52.830;6.914;2023-04-24T09:07:54;9.20;99.90
52725;DHT22;38621;52.830;6.914;2023-04-24T09:10:24;9.20;99.90
52725;DHT22;38621;52.830;6.914;2023-04-24T09:12:51;9.20;99.90
52725;DHT22;38621;52.830;6.914;2023-04-24T09:15:19;9.20;99.90
52725;DHT22;38621;52.830;6.914;2023-04-24T09:17:46;9.20;99.90
52725;DHT22;38621;52.830;6.914;2023-04-24T09:20:12;9.20;99.90
52725;DHT22;38621;52.830;6.914;2023-04-24T09:22:37;9.30;99.90
52725;DHT22;38621;52.830;6.914;2023-04-24T09:25:07;9.30;99.90
52725;DHT22;38621;52.830;6.914;2023-04-24T09:27:34;9.30;99.90
52725;DHT22;38621;52.830;6.914;2023-04-24T09:30:02;9.20;99.90
52725;DHT22;38621;52.830;6.914;2023-04-24T09:32:27;9.20;99.90
52725;DHT22;38621;52.830;6.914;2023-04-24T09:37:36;9.30;99.90
52725;DHT22;38621;52.830;6.914;2023-04-24T09:42:44;9.30;99.90
52725;DHT22;38621;52.830;6.914;2023-04-24T09:45:10;9.10;99.90
52725;DHT22;38621;52.830;6.914;2023-04-24T09:47:39;9.00;99.90
52725;DHT22;38621;52.830;6.914;2023-04-24T09:50:16;8.80;99.90
52725;DHT22;38621;52.830;6.914;2023-04-24T09:52:44;8.80;99.90
52725;DHT22;38621;52.830;6.914;2023-04-24T09:55:27;8.70;99.90
52725;DHT22;38621;52.830;6.914;2023-04-24T09:58:01;8.70;99.90
52725;DHT22;38621;52.830;6.914;2023-04-24T10:00:28;8.60;99.90
52725;DHT22;38621;52.830;6.914;2023-04-24T10:02:59;8.60;99.90
52725;DHT22;38621;52.830;6.914;2023-04-24T10:05:31;8.60;99.90
52725;DHT22;38621;52.830;6.914;2023-04-24T10:08:05;8.60;99.90
52725;DHT22;38621;52.830;6.914;2023-04-24T10:10:32;8.60;99.90
52725;DHT22;38621;52.830;6.914;2023-04-24T10:12:59;8.70;99.90
52725;DHT22;38621;52.830;6.914;2023-04-24T10:15:26;8.60;99.90
52725;DHT22;38621;52.830;6.914;2023-04-24T10:17:52;8.60;99.90
52725;DHT22;38621;52.830;6.914;2023-04-24T10:20:23;8.60;99.90
52725;DHT22;38621;52.830;6.914;2023-04-24T10:22:50;8.60;99.90
52725;DHT22;38621;52.830;6.914;2023-04-24T10:25:22;8.50;99.90
52725;DHT22;38621;52.830;6.914;2023-04-24T10:27:49;8.50;99.90
52725;DHT22;38621;52.830;6.914;2023-04-24T10:30:16;8.50;99.90
52725;DHT22;38621;52.830;6.914;2023-04-24T10:32:42;8.50;99.90
52725;DHT22;38621;52.830;6.914;2023-04-24T10:35:12;8.50;99.90
52725;DHT22;38621;52.830;6.914;2023-04-24T10:37:44;8.60;99.90
52725;DHT22;38621;52.830;6.914;2023-04-24T10:40:11;8.50;99.90
52725;DHT22;38621;52.830;6.914;2023-04-24T10:42:41;8.50;99.90
52725;DHT22;38621;52.830;6.914;2023-04-24T10:45:19;8.60;99.90
52725;DHT22;38621;52.830;6.914;2023-04-24T10:50:21;8.70;99.90
52725;DHT22;38621;52.830;6.914;2023-04-24T10:52:48;8.80;99.90
52725;DHT22;38621;52.830;6.914;2023-04-24T10:55:16;8.80;99.90
52725;DHT22;38621;52.830;6.914;2023-04-24T10:58:04;8.90;99.90
52725;DHT22;38621;52.830;6.914;2023-04-24T11:00:30;8.90;99.90
52725;DHT22;38621;52.830;6.914;2023-04-24T11:02:56;8.80;99.90
52725;DHT22;38621;52.830;6.914;2023-04-24T11:05:53;8.80;99.90
52725;DHT22;38621;52.830;6.914;2023-04-24T11:11:14;8.80;99.90
52725;DHT22;38621;52.830;6.914;2023-04-24T11:21:44;8.60;99.90
52725;DHT22;38621;52.830;6.914;2023-04-24T11:24:31;8.60;99.90
52725;DHT22;38621;52.830;6.914;2023-04-24T11:27:17;8.60;99.90
52725;DHT22;38621;52.830;6.914;2023-04-24T11:32:37;8.70;99.90
52725;DHT22;38621;52.830;6.914;2023-04-24T11:37:38;9.00;99.90
52725;DHT22;38621;52.830;6.914;2023-04-24T11:40:06;9.10;99.90
52725;DHT22;38621;52.830;6.914;2023-04-24T11:42:40;9.20;99.90
52725;DHT22;38621;52.830;6.914;2023-04-24T11:45:14;9.20;99.90
52725;DHT22;38621;52.830;6.914;2023-04-24T11:47:41;9.10;99.90
52725;DHT22;38621;52.830;6.914;2023-04-24T11:50:13;9.00;99.90
52725;DHT22;38621;52.830;6.914;2023-04-24T11:52:49;8.90;99.90
52725;DHT22;38621;52.830;6.914;2023-04-24T12:00:31;8.80;99.90
52725;DHT22;38621;52.830;6.914;2023-04-24T12:03:06;8.80;99.90
52725;DHT22;38621;52.830;6.914;2023-04-24T12:05:32;8.80;99.90
52725;DHT22;38621;52.830;6.914;2023-04-24T12:07:58;8.80;99.90
52725;DHT22;38621;52.830;6.914;2023-04-24T12:10:25;8.80;99.90
52725;DHT22;38621;52.830;6.914;2023-04-24T12:12:51;8.90;99.90
52725;DHT22;38621;52.830;6.914;2023-04-24T12:15:19;9.00;99.90
52725;DHT22;38621;52.830;6.914;2023-04-24T12:17:45;9.20;99.90
52725;DHT22;38621;52.830;6.914;2023-04-24T12:20:11;9.20;99.90
52725;DHT22;38621;52.830;6.914;2023-04-24T12:22:53;9.20;99.90
52725;DHT22;38621;52.830;6.914;2023-04-24T12:25:21;9.10;99.90
52725;DHT22;38621;52.830;6.914;2023-04-24T12:28:11;9.00;99.90
52725;DHT22;38621;52.830;6.914;2023-04-24T12:31:03;9.00;99.90
52725;DHT22;38621;52.830;6.914;2023-04-24T12:33:33;8.90;99.90
52725;DHT22;38621;52.830;6.914;2023-04-24T12:35:59;8.80;99.90
52725;DHT22;38621;52.830;6.914;2023-04-24T12:38:26;8.80;99.90
52725;DHT22;38621;52.830;6.914;2023-04-24T12:41:06;8.70;99.90
52725;DHT22;38621;52.830;6.914;2023-04-24T12:43:32;8.70;99.90
52725;DHT22;38621;52.830;6.914;2023-04-24T12:45:58;8.80;99.90
52725;DHT22;38621;52.830;6.914;2023-04-24T12:48:28;8.80;99.90
52725;DHT22;38621;52.830;6.914;2023-04-24T12:50:54;9.00;99.90
52725;DHT22;38621;52.830;6.914;2023-04-24T12:53:20;9.00;99.90
52725;DHT22;38621;52.830;6.914;2023-04-24T12:55:46;9.00;99.90
52725;DHT22;38621;52.830;6.914;2023-04-24T12:58:21;9.10;99.90
52725;DHT22;38621;52.830;6.914;2023-04-24T13:00:47;9.10;99.90
52725;DHT22;38621;52.830;6.914;2023-04-24T13:03:13;9.10;99.90
52725;DHT22;38621;52.830;6.914;2023-04-24T13:05:39;9.10;99.90
52725;DHT22;38621;52.830;6.914;2023-04-24T13:08:05;9.10;99.90
52725;DHT22;38621;52.830;6.914;2023-04-24T13:10:31;9.20;99.90
52725;DHT22;38621;52.830;6.914;2023-04-24T13:12:57;9.30;99.90
52725;DHT22;38621;52.830;6.914;2023-04-24T13:15:23;9.40;99.90
52725;DHT22;38621;52.830;6.914;2023-04-24T13:17:50;9.60;99.90
52725;DHT22;38621;52.830;6.914;2023-04-24T13:20:16;9.80;99.90
52725;DHT22;38621;52.830;6.914;2023-04-24T13:22:41;9.80;99.90
52725;DHT22;38621;52.830;6.914;2023-04-24T13:25:07;9.80;99.90
52725;DHT22;38621;52.830;6.914;2023-04-24T13:27:34;9.70;99.90
52725;DHT22;38621;52.830;6.914;2023-04-24T13:29:59;9.50;99.90
52725;DHT22;38621;52.830;6.914;2023-04-24T13:32:25;9.30;99.90
52725;DHT22;38621;52.830;6.914;2023-04-24T13:34:51;9.20;99.90
52725;DHT22;38621;52.830;6.914;2023-04-24T13:37:17;9.00;99.90
52725;DHT22;38621;52.830;6.914;2023-04-24T13:39:42;8.90;99.90
52725;DHT22;38621;52.830;6.914;2023-04-24T13:42:08;8.70;99.90
52725;DHT22;38621;52.830;6.914;2023-04-24T13:44:34;8.70;99.90
52725;DHT22;38621;52.830;6.914;2023-04-24T13:47:00;8.70;99.90
52725;DHT22;38621;52.830;6.914;2023-04-24T13:49:26;8.80;99.90
52725;DHT22;38621;52.830;6.914;2023-04-24T13:51:53;8.90;99.90
52725;DHT22;38621;52.830;6.914;2023-04-24T13:54:19;8.90;99.90
52725;DHT22;38621;52.830;6.914;2023-04-24T13:56:45;9.00;99.90
52725;DHT22;38621;52.830;6.914;2023-04-24T13:59:12;9.00;99.90
52725;DHT22;38621;52.830;6.914;2023-04-24T14:01:38;9.00;99.90
52725;DHT22;38621;52.830;6.914;2023-04-24T14:04:04;9.00;99.90
52725;DHT22;38621;52.830;6.914;2023-04-24T14:06:30;9.00;99.90
52725;DHT22;38621;52.830;6.914;2023-04-24T14:08:56;8.90;99.90
52725;DHT22;38621;52.830;6.914;2023-04-24T14:11:22;8.80;99.90
52725;DHT22;38621;52.830;6.914;2023-04-24T14:13:48;8.80;99.90
52725;DHT22;38621;52.830;6.914;2023-04-24T14:16:14;8.80;99.90
52725;DHT22;38621;52.830;6.914;2023-04-24T14:18:40;8.70;99.90
52725;DHT22;38621;52.830;6.914;2023-04-24T14:21:06;8.50;99.90
52725;DHT22;38621;52.830;6.914;2023-04-24T14:23:32;8.20;99.90
52725;DHT22;38621;52.830;6.914;2023-04-24T14:25:58;8.00;99.90
52725;DHT22;38621;52.830;6.914;2023-04-24T14:28:24;7.90;99.90
52725;DHT22;38621;52.830;6.914;2023-04-24T14:30:51;7.90;99.90
52725;DHT22;38621;52.830;6.914;2023-04-24T14:33:17;7.90;99.90
52725;DHT22;38621;52.830;6.914;2023-04-24T14:35:43;7.90;99.90
52725;DHT22;38621;52.830;6.914;2023-04-24T14:38:09;8.00;99.90
52725;DHT22;38621;52.830;6.914;2023-04-24T14:40:35;8.00;99.90
52725;DHT22;38621;52.830;6.914;2023-04-24T14:43:01;8.20;99.90
52725;DHT22;38621;52.830;6.914;2023-04-24T14:45:27;8.30;99.90
52725;DHT22;38621;52.830;6.914;2023-04-24T14:47:53;8.30;99.90
52725;DHT22;38621;52.830;6.914;2023-04-24T14:50:19;8.40;99.90
52725;DHT22;38621;52.830;6.914;2023-04-24T14:52:45;8.50;99.90
52725;DHT22;38621;52.830;6.914;2023-04-24T14:55:11;8.50;99.90
52725;DHT22;38621;52.830;6.914;2023-04-24T14:57:37;8.50;99.90
52725;DHT22;38621;52.830;6.914;2023-04-24T15:00:04;8.60;99.90
52725;DHT22;38621;52.830;6.914;2023-04-24T15:02:33;8.60;99.90
52725;DHT22;38621;52.830;6.914;2023-04-24T15:04:58;8.50;99.90
52725;DHT22;38621;52.830;6.914;2023-04-24T15:07:24;8.60;99.90
52725;DHT22;38621;52.830;6.914;2023-04-24T15:09:50;8.50;99.90
52725;DHT22;38621;52.830;6.914;2023-04-24T15:12:16;8.60;99.90
52725;DHT22;38621;52.830;6.914;2023-04-24T15:14:42;8.60;99.90
52725;DHT22;38621;52.830;6.914;2023-04-24T15:17:08;8.60;99.90
52725;DHT22;38621;52.830;6.914;2023-04-24T15:19:33;8.60;99.90
52725;DHT22;38621;52.830;6.914;2023-04-24T15:21:59;8.60;99.90
52725;DHT22;38621;52.830;6.914;2023-04-24T15:24:25;8.60;99.90
52725;DHT22;38621;52.830;6.914;2023-04-24T15:26:50;8.70;99.90
52725;DHT22;38621;52.830;6.914;2023-04-24T15:29:16;8.80;99.90
52725;DHT22;38621;52.830;6.914;2023-04-24T15:31:42;9.00;99.90
52725;DHT22;38621;52.830;6.914;2023-04-24T15:34:08;9.10;99.90
52725;DHT22;38621;52.830;6.914;2023-04-24T15:36:34;9.10;99.90
52725;DHT22;38621;52.830;6.914;2023-04-24T15:39:02;9.10;99.90
52725;DHT22;38621;52.830;6.914;2023-04-24T15:41:28;9.10;99.90
52725;DHT22;38621;52.830;6.914;2023-04-24T15:43:53;9.10;99.90
52725;DHT22;38621;52.830;6.914;2023-04-24T15:46:19;9.10;99.90
52725;DHT22;38621;52.830;6.914;2023-04-24T15:48:45;9.10;99.90
52725;DHT22;38621;52.830;6.914;2023-04-24T15:51:10;9.20;99.90
52725;DHT22;38621;52.830;6.914;2023-04-24T15:53:36;9.20;99.90
52725;DHT22;38621;52.830;6.914;2023-04-24T15:56:02;9.20;99.90
52725;DHT22;38621;52.830;6.914;2023-04-24T15:58:28;9.20;99.90
52725;DHT22;38621;52.830;6.914;2023-04-24T16:00:54;9.10;99.90
52725;DHT22;38621;52.830;6.914;2023-04-24T16:03:20;9.00;99.90
52725;DHT22;38621;52.830;6.914;2023-04-24T16:05:46;8.80;99.90
52725;DHT22;38621;52.830;6.914;2023-04-24T16:08:11;8.60;99.90
52725;DHT22;38621;52.830;6.914;2023-04-24T16:10:40;8.40;99.90
52725;DHT22;38621;52.830;6.914;2023-04-24T16:13:06;8.20;99.90